createdAt,value
2018-02-22T00:00:18.776Z,-3.50
2018-02-22T00:02:46.290Z,-3.50
2018-02-22T00:05:13.821Z,-3.50
2018-02-22T00:07:41.333Z,-3.50
2018-02-22T00:10:09.620Z,-3.50
2018-02-22T00:12:37.916Z,-3.60
2018-02-22T00:15:05.442Z,-3.70
2018-02-22T00:17:32.966Z,-3.50
2018-02-22T00:20:00.516Z,-3.50
2018-02-22T00:22:28.025Z,-3.50
2018-02-22T00:24:56.329Z,-3.60
2018-02-22T00:27:23.842Z,-3.70
2018-02-22T00:29:51.350Z,-3.60
2018-02-22T00:32:18.872Z,-3.70
2018-02-22T00:34:46.537Z,-3.60
2018-02-22T00:37:14.077Z,-3.50
2018-02-22T00:39:41.587Z,-3.50
2018-02-22T00:42:09.093Z,-3.50
2018-02-22T00:44:36.612Z,-3.50
2018-02-22T00:47:04.126Z,-3.60
2018-02-22T00:49:31.645Z,-3.70
2018-02-22T00:51:59.173Z,-3.70
2018-02-22T00:54:27.443Z,-3.50
2018-02-22T00:56:54.952Z,-3.60
2018-02-22T00:59:22.484Z,-3.60
2018-02-22T01:01:49.996Z,-3.60
2018-02-22T01:04:17.501Z,-3.60
2018-02-22T01:06:45.048Z,-3.70
2018-02-22T01:09:13.328Z,-3.80
2018-02-22T01:11:41.612Z,-3.80
2018-02-22T01:14:09.940Z,-3.80
2018-02-22T01:16:37.450Z,-3.90
2018-02-22T01:19:04.989Z,-3.80
2018-02-22T01:21:33.289Z,-3.60
2018-02-22T01:24:00.779Z,-3.60
2018-02-22T01:26:28.301Z,-3.60
2018-02-22T01:28:56.597Z,-3.80
2018-02-22T01:31:24.104Z,-3.90
2018-02-22T01:33:51.685Z,-3.80
2018-02-22T01:36:20.027Z,-3.80
2018-02-22T01:38:47.533Z,-3.90
2018-02-22T01:41:15.828Z,-3.80
2018-02-22T01:43:43.354Z,-4.00
2018-02-22T01:46:10.865Z,-3.90
2018-02-22T01:48:38.396Z,-3.70
2018-02-22T01:51:06.668Z,-3.70
2018-02-22T01:53:34.964Z,-3.70
2018-02-22T01:56:02.473Z,-3.80
2018-02-22T01:58:29.972Z,-3.90
2018-02-22T02:00:58.267Z,-3.90
2018-02-22T02:03:25.769Z,-4.00
2018-02-22T02:05:53.292Z,-3.80
2018-02-22T02:08:20.801Z,-3.70
2018-02-22T02:10:48.309Z,-3.70
2018-02-22T02:13:15.830Z,-3.50
2018-02-22T02:15:44.105Z,-3.60
2018-02-22T02:18:12.066Z,-3.70
2018-02-22T02:20:39.586Z,-3.70
2018-02-22T02:23:07.098Z,-3.80
2018-02-22T02:25:35.403Z,-3.60
2018-02-22T02:28:07.724Z,-3.70
2018-02-22T02:30:35.261Z,-3.70
2018-02-22T02:33:02.776Z,-3.60
2018-02-22T02:35:30.307Z,-3.80
2018-02-22T02:37:57.833Z,-3.80
2018-02-22T02:40:25.342Z,-3.60
2018-02-22T02:42:53.641Z,-3.90
2018-02-22T02:45:21.148Z,-4.00
2018-02-22T02:47:48.656Z,-3.80
2018-02-22T02:50:16.948Z,-3.90
2018-02-22T02:52:44.483Z,-4.00
2018-02-22T02:55:13.035Z,-4.10
2018-02-22T02:57:41.041Z,-4.20
2018-02-22T03:00:09.309Z,-3.70
2018-02-22T03:02:38.309Z,-3.80
2018-02-22T03:05:06.592Z,-3.90
2018-02-22T03:07:34.889Z,-3.90
2018-02-22T03:10:02.397Z,-3.90
2018-02-22T03:12:29.908Z,-4.00
2018-02-22T03:14:57.449Z,-4.10
2018-02-22T03:17:25.763Z,-4.10
2018-02-22T03:19:53.292Z,-4.20
2018-02-22T03:22:22.252Z,-3.90
2018-02-22T03:24:49.760Z,-4.00
2018-02-22T03:27:17.300Z,-3.80
2018-02-22T03:29:45.564Z,-4.00
2018-02-22T03:32:13.850Z,-4.00
2018-02-22T03:34:42.149Z,-4.10
2018-02-22T03:37:09.661Z,-4.20
2018-02-22T03:39:37.173Z,-4.20
2018-02-22T03:42:04.709Z,-4.20
2018-02-22T03:44:32.980Z,-4.10
2018-02-22T03:47:01.277Z,-4.20
2018-02-22T03:49:28.800Z,-4.30
2018-02-22T03:51:56.310Z,-4.00
2018-02-22T03:54:23.848Z,-4.00
2018-02-22T03:56:52.133Z,-4.20
2018-02-22T03:59:19.659Z,-4.30
2018-02-22T04:01:47.201Z,-4.20
2018-02-22T04:04:14.714Z,-4.10
2018-02-22T04:06:42.262Z,-4.40
2018-02-22T04:09:10.557Z,-4.70
2018-02-22T04:11:38.088Z,-4.80
2018-02-22T04:14:05.588Z,-4.60
2018-02-22T04:16:33.107Z,-4.30
2018-02-22T04:19:00.659Z,-4.30
2018-02-22T04:21:28.216Z,-4.60
2018-02-22T04:23:55.759Z,-4.50
2018-02-22T04:26:23.287Z,-4.50
2018-02-22T04:28:50.796Z,-4.50
2018-02-22T04:31:18.326Z,-4.50
2018-02-22T04:33:45.819Z,-4.50
2018-02-22T04:36:13.334Z,-4.30
2018-02-22T04:38:40.856Z,-4.30
2018-02-22T04:41:09.119Z,-4.70
2018-02-22T04:43:36.636Z,-4.80
2018-02-22T04:46:04.141Z,-4.80
2018-02-22T04:48:32.425Z,-4.60
2018-02-22T04:51:00.694Z,-4.80
2018-02-22T04:53:29.014Z,-4.70
2018-02-22T04:55:56.539Z,-4.80
2018-02-22T04:58:24.824Z,-4.60
2018-02-22T05:00:53.200Z,-4.70
2018-02-22T05:03:21.471Z,-4.70
2018-02-22T05:05:49.746Z,-4.70
2018-02-22T05:08:18.037Z,-4.80
2018-02-22T05:10:46.365Z,-4.80
2018-02-22T05:13:13.903Z,-4.90
2018-02-22T05:15:41.418Z,-4.60
2018-02-22T05:18:09.692Z,-4.70
2018-02-22T05:20:37.228Z,-4.80
2018-02-22T05:23:04.741Z,-4.60
2018-02-22T05:25:32.789Z,-4.60
2018-02-22T05:28:01.080Z,-4.60
2018-02-22T05:30:29.399Z,-4.50
2018-02-22T05:32:56.925Z,-4.60
2018-02-22T05:35:25.191Z,-4.60
2018-02-22T05:37:53.493Z,-4.70
2018-02-22T05:40:21.016Z,-4.80
2018-02-22T05:42:48.525Z,-4.60
2018-02-22T05:45:16.067Z,-4.60
2018-02-22T05:47:43.585Z,-4.70
2018-02-22T05:50:11.114Z,-4.60
2018-02-22T05:52:39.473Z,-4.60
2018-02-22T05:55:06.991Z,-4.70
2018-02-22T05:57:34.552Z,-4.70
2018-02-22T06:00:02.091Z,-4.70
2018-02-22T06:02:29.640Z,-4.70
2018-02-22T06:04:57.145Z,-4.40
2018-02-22T06:07:24.681Z,-4.50
2018-02-22T06:09:52.196Z,-4.50
2018-02-22T06:12:19.721Z,-4.60
2018-02-22T06:14:48.000Z,-4.70
2018-02-22T06:17:16.284Z,-4.60
2018-02-22T06:19:44.582Z,-4.60
2018-02-22T06:22:12.117Z,-4.70
2018-02-22T06:24:41.353Z,-4.50
2018-02-22T06:27:09.193Z,-4.60
2018-02-22T06:29:36.685Z,-4.40
2018-02-22T06:32:04.210Z,-4.40
2018-02-22T06:34:32.487Z,-4.50
2018-02-22T06:37:00.024Z,-4.50
2018-02-22T06:39:27.546Z,-4.20
2018-02-22T06:41:55.067Z,-4.40
2018-02-22T06:44:23.364Z,-4.40
2018-02-22T06:46:50.884Z,-4.50
2018-02-22T06:49:18.422Z,-4.30
2018-02-22T06:51:45.965Z,-4.30
2018-02-22T06:54:13.477Z,-4.30
2018-02-22T06:56:41.773Z,-4.50
2018-02-22T06:59:09.284Z,-4.60
2018-02-22T07:01:36.819Z,-4.50
2018-02-22T07:04:04.333Z,-4.50
2018-02-22T07:06:32.633Z,-4.50
2018-02-22T07:09:01.080Z,-4.60
2018-02-22T07:11:28.753Z,-4.30
2018-02-22T07:13:56.362Z,-4.30
2018-02-22T07:16:23.862Z,-4.30
2018-02-22T07:18:51.405Z,-4.30
2018-02-22T07:21:18.921Z,-4.40
2018-02-22T07:23:46.436Z,-4.40
2018-02-22T07:26:14.230Z,-4.40
2018-02-22T07:28:42.520Z,-4.30
2018-02-22T07:31:10.075Z,-4.40
2018-02-22T07:33:37.584Z,-4.10
2018-02-22T07:36:05.127Z,-4.10
2018-02-22T07:38:32.647Z,-4.10
2018-02-22T07:41:00.916Z,-4.00
2018-02-22T07:43:29.227Z,-4.00
2018-02-22T07:45:56.740Z,-4.10
2018-02-22T07:48:24.265Z,-3.90
2018-02-22T07:50:51.792Z,-3.90
2018-02-22T07:53:19.320Z,-3.90
2018-02-22T07:55:46.844Z,-4.00
2018-02-22T07:58:14.369Z,-4.00
2018-02-22T08:00:41.896Z,-3.80
2018-02-22T08:03:09.409Z,-3.70
2018-02-22T08:05:36.961Z,-3.50
2018-02-22T08:08:04.496Z,-3.50
2018-02-22T08:10:32.775Z,-3.40
2018-02-22T08:13:01.067Z,-3.30
2018-02-22T08:15:28.618Z,-3.40
2018-02-22T08:17:56.913Z,-2.90
2018-02-22T08:20:25.393Z,-3.00
2018-02-22T08:22:52.916Z,-3.00
2018-02-22T08:25:21.249Z,-2.80
2018-02-22T08:27:48.756Z,-2.90
2018-02-22T08:30:17.058Z,-3.10
2018-02-22T08:32:45.332Z,-3.20
2018-02-22T08:35:13.605Z,-3.20
2018-02-22T08:37:41.903Z,-3.40
2018-02-22T08:40:09.411Z,-3.50
2018-02-22T08:42:36.949Z,-3.30
2018-02-22T08:45:04.454Z,-3.50
2018-02-22T08:47:31.961Z,-3.40
2018-02-22T08:49:59.494Z,-3.60
2018-02-22T08:52:27.002Z,-3.60
2018-02-22T08:54:54.525Z,-3.50
2018-02-22T08:57:22.051Z,-3.40
2018-02-22T08:59:50.350Z,-3.20
2018-02-22T09:02:17.882Z,-3.30
2018-02-22T09:04:45.397Z,-3.20
2018-02-22T09:07:12.934Z,-3.30
2018-02-22T09:09:40.437Z,-3.30
2018-02-22T09:12:07.973Z,-3.10
2018-02-22T09:14:35.505Z,-3.00
2018-02-22T09:17:03.013Z,-3.10
2018-02-22T09:19:30.656Z,-3.00
2018-02-22T09:21:58.167Z,-2.80
2018-02-22T09:24:26.449Z,-2.60
2018-02-22T09:26:54.741Z,-2.50
2018-02-22T09:29:22.247Z,-2.50
2018-02-22T09:31:49.770Z,-2.50
2018-02-22T09:34:17.282Z,-2.60
2018-02-22T09:36:44.796Z,-2.50
2018-02-22T09:39:12.332Z,-2.50
2018-02-22T09:41:40.668Z,-2.30
2018-02-22T09:44:08.204Z,-2.40
2018-02-22T09:46:35.779Z,-2.30
2018-02-22T09:49:03.250Z,-2.40
2018-02-22T09:51:30.781Z,-2.10
2018-02-22T09:53:58.296Z,-2.30
2018-02-22T09:56:26.605Z,-2.00
2018-02-22T09:58:54.125Z,-2.10
2018-02-22T10:01:21.630Z,-1.80
2018-02-22T10:03:49.148Z,-1.80
2018-02-22T10:06:16.709Z,-1.70
2018-02-22T10:08:44.227Z,-1.60
2018-02-22T10:11:11.743Z,-1.80
2018-02-22T10:13:40.017Z,-1.80
2018-02-22T10:16:08.300Z,-1.80
2018-02-22T10:18:36.577Z,-1.70
2018-02-22T10:21:04.869Z,-1.50
2018-02-22T10:23:32.376Z,-1.60
2018-02-22T10:25:59.872Z,-1.20
2018-02-22T10:28:28.158Z,-1.40
2018-02-22T10:30:55.665Z,-1.50
2018-02-22T10:33:23.197Z,-1.40
2018-02-22T10:35:50.721Z,-1.40
2018-02-22T10:38:20.933Z,-1.10
2018-02-22T10:40:48.492Z,-1.20
2018-02-22T10:43:16.000Z,-1.20
2018-02-22T10:45:43.544Z,-1.10
2018-02-22T10:48:11.068Z,-1.10
2018-02-22T10:50:38.585Z,-1.20
2018-02-22T10:53:06.114Z,-1.20
2018-02-22T10:55:33.632Z,-1.10
2018-02-22T10:58:01.165Z,-1.10
2018-02-22T11:00:34.397Z,-1.10
2018-02-22T11:03:01.938Z,-1.00
2018-02-22T11:05:29.439Z,-0.80
2018-02-22T11:07:57.715Z,-1.00
2018-02-22T11:10:26.012Z,-0.90
2018-02-22T11:12:53.532Z,-1.00
2018-02-22T11:15:21.067Z,-0.80
2018-02-22T11:17:48.576Z,-0.90
2018-02-22T11:20:16.852Z,-0.80
2018-02-22T11:22:45.306Z,-0.60
2018-02-22T11:25:12.812Z,-0.70
2018-02-22T11:27:40.345Z,-0.70
2018-02-22T11:30:08.634Z,-0.70
2018-02-22T11:32:36.197Z,-0.70
2018-02-22T11:35:03.742Z,-0.60
2018-02-22T11:37:31.283Z,-0.80
2018-02-22T11:39:58.805Z,-1.00
2018-02-22T11:42:26.305Z,-0.90
2018-02-22T11:44:53.812Z,-0.90
2018-02-22T11:47:21.346Z,-0.80
2018-02-22T11:49:49.632Z,-0.90
2018-02-22T11:52:17.182Z,-1.00
2018-02-22T11:54:45.458Z,-1.10
2018-02-22T11:57:13.737Z,-1.20
2018-02-22T11:59:42.033Z,-1.10
2018-02-22T12:02:09.538Z,-1.20
2018-02-22T12:04:37.078Z,-1.10
2018-02-22T12:07:04.609Z,-1.00
2018-02-22T12:09:32.132Z,-0.80
2018-02-22T12:11:59.664Z,-0.70
2018-02-22T12:14:27.172Z,-0.50
2018-02-22T12:16:55.477Z,-0.30
2018-02-22T12:19:23.035Z,-0.50
2018-02-22T12:21:51.285Z,-0.50
2018-02-22T12:24:19.574Z,-0.40
2018-02-22T12:26:47.857Z,-0.20
2018-02-22T12:29:15.389Z,-0.30
2018-02-22T12:31:42.901Z,-0.20
2018-02-22T12:34:10.428Z,-0.20
2018-02-22T12:36:38.696Z,-0.40
2018-02-22T12:39:06.998Z,-0.50
2018-02-22T12:41:34.559Z,-0.60
2018-02-22T12:44:02.179Z,-0.30
2018-02-22T12:46:29.671Z,-0.20
2018-02-22T12:48:58.101Z,0.00
2018-02-22T12:51:25.632Z,0.20
2018-02-22T12:53:53.136Z,0.40
2018-02-22T12:56:20.706Z,0.10
2018-02-22T12:58:48.168Z,0.00
2018-02-22T13:01:15.672Z,0.20
2018-02-22T13:03:43.245Z,0.40
2018-02-22T13:06:10.765Z,0.50
2018-02-22T13:08:39.056Z,0.60
2018-02-22T13:11:06.572Z,0.50
2018-02-22T13:13:34.089Z,0.30
2018-02-22T13:16:01.612Z,0.10
2018-02-22T13:18:29.895Z,0.10
2018-02-22T13:20:58.198Z,0.20
2018-02-22T13:23:25.706Z,0.10
2018-02-22T13:25:53.218Z,0.10
2018-02-22T13:28:20.749Z,-0.10
2018-02-22T13:30:49.038Z,-0.10
2018-02-22T13:33:29.235Z,-0.10
2018-02-22T13:35:56.762Z,-0.20
2018-02-22T13:38:36.059Z,-0.10
2018-02-22T13:41:03.581Z,-0.20
2018-02-22T13:43:31.087Z,-0.30
2018-02-22T13:45:58.621Z,-0.40
2018-02-22T13:48:37.972Z,-0.50
2018-02-22T13:51:07.305Z,-0.40
2018-02-22T13:53:35.602Z,-0.30
2018-02-22T13:56:03.136Z,-0.40
2018-02-22T13:58:31.156Z,-0.30
2018-02-22T14:01:10.645Z,-0.40
2018-02-22T14:03:38.922Z,-0.40
2018-02-22T14:06:06.476Z,-0.50
2018-02-22T14:08:45.718Z,-0.40
2018-02-22T14:11:14.026Z,-0.10
2018-02-22T14:13:41.598Z,-0.10
2018-02-22T14:16:09.122Z,-0.10
2018-02-22T14:18:37.461Z,-0.30
2018-02-22T14:21:04.973Z,-0.40
2018-02-22T14:23:32.500Z,-0.50
2018-02-22T14:26:00.021Z,-0.60
2018-02-22T14:28:27.541Z,-0.60
2018-02-22T14:30:55.070Z,-0.60
2018-02-22T14:33:22.694Z,-0.70
2018-02-22T14:35:50.305Z,-0.60
2018-02-22T14:38:18.592Z,-0.50
2018-02-22T14:40:46.880Z,-0.50
2018-02-22T14:43:14.422Z,-0.60
2018-02-22T14:45:42.949Z,-0.70
2018-02-22T14:48:10.473Z,-0.80
2018-02-22T14:50:38.764Z,-0.70
2018-02-22T14:53:07.053Z,-0.70
2018-02-22T14:55:34.605Z,-0.80
2018-02-22T14:58:02.133Z,-0.60
2018-02-22T15:00:29.694Z,-0.60
2018-02-22T15:02:57.254Z,-0.60
2018-02-22T15:05:24.773Z,-0.70
2018-02-22T15:07:52.317Z,-0.70
2018-02-22T15:10:19.828Z,-0.60
2018-02-22T15:12:47.361Z,-0.60
2018-02-22T15:15:15.625Z,-0.40
2018-02-22T15:17:43.140Z,-0.60
2018-02-22T15:20:10.662Z,-0.50
2018-02-22T15:22:38.172Z,-0.50
2018-02-22T15:25:05.704Z,-0.50
2018-02-22T15:27:33.217Z,-0.40
2018-02-22T15:30:02.317Z,-0.40
2018-02-22T15:32:29.876Z,-0.50
2018-02-22T15:34:57.382Z,-0.40
2018-02-22T15:37:24.913Z,-0.50
2018-02-22T15:39:52.424Z,-0.50
2018-02-22T15:42:20.733Z,-0.70
2018-02-22T15:44:48.316Z,-0.80
2018-02-22T15:47:15.844Z,-0.60
2018-02-22T15:49:43.396Z,-0.60
2018-02-22T15:52:10.924Z,-0.70
2018-02-22T15:54:38.984Z,-0.70
2018-02-22T15:57:06.508Z,-0.70
2018-02-22T15:59:34.045Z,-0.60
2018-02-22T16:02:01.621Z,-0.70
2018-02-22T16:04:29.129Z,-0.70
2018-02-22T16:06:56.638Z,-0.70
2018-02-22T16:09:24.167Z,-0.60
2018-02-22T16:11:52.481Z,-0.60
2018-02-22T16:14:20.013Z,-0.70
2018-02-22T16:16:48.309Z,-0.60
2018-02-22T16:19:16.745Z,-0.70
2018-02-22T16:21:44.274Z,-0.70
2018-02-22T16:24:11.798Z,-0.70
2018-02-22T16:26:39.340Z,-0.70
2018-02-22T16:29:06.862Z,-0.80
2018-02-22T16:31:34.376Z,-0.80
2018-02-22T16:34:02.675Z,-0.70
2018-02-22T16:36:30.180Z,-0.80
2018-02-22T16:39:00.939Z,-0.80
2018-02-22T16:41:29.247Z,-0.90
2018-02-22T16:43:56.842Z,-1.00
2018-02-22T16:46:24.373Z,-0.90
2018-02-22T16:48:53.863Z,-0.90
2018-02-22T16:51:21.365Z,-0.90
2018-02-22T16:53:48.872Z,-0.80
2018-02-22T16:56:17.156Z,-0.90
2018-02-22T16:58:44.716Z,-1.00
2018-02-22T17:01:12.236Z,-0.90
2018-02-22T17:03:39.764Z,-0.90
2018-02-22T17:06:07.271Z,-0.90
2018-02-22T17:08:34.788Z,-0.90
2018-02-22T17:11:02.309Z,-0.90
2018-02-22T17:13:30.582Z,-0.90
2018-02-22T17:15:58.114Z,-1.00
2018-02-22T17:18:25.647Z,-0.90
2018-02-22T17:20:53.164Z,-1.00
2018-02-22T17:23:20.705Z,-0.90
2018-02-22T17:25:53.946Z,-0.90
2018-02-22T17:28:27.165Z,-0.90
2018-02-22T17:31:00.386Z,-0.90
2018-02-22T17:33:27.908Z,-1.00
2018-02-22T17:35:56.323Z,-0.90
2018-02-22T17:38:28.492Z,-1.00
2018-02-22T17:41:00.937Z,-0.90
2018-02-22T17:43:28.467Z,-0.80
2018-02-22T17:45:56.026Z,-0.90
2018-02-22T17:48:23.542Z,-1.00
2018-02-22T17:50:51.072Z,-0.90
2018-02-22T17:53:18.585Z,-1.00
2018-02-22T17:55:46.890Z,-1.00
2018-02-22T17:58:14.421Z,-1.00
2018-02-22T18:00:42.697Z,-1.00
2018-02-22T18:03:10.981Z,-0.90
2018-02-22T18:05:39.252Z,-0.90
2018-02-22T18:08:07.565Z,-0.90
2018-02-22T18:10:35.080Z,-1.10
2018-02-22T18:13:02.629Z,-1.00
2018-02-22T18:15:30.146Z,-1.00
2018-02-22T18:17:57.669Z,-0.90
2018-02-22T18:20:25.228Z,-0.90
2018-02-22T18:22:52.904Z,-1.00
2018-02-22T18:25:20.445Z,-1.00
2018-02-22T18:27:48.015Z,-1.00
2018-02-22T18:30:15.539Z,-1.00
2018-02-22T18:32:43.058Z,-1.00
2018-02-22T18:35:10.561Z,-1.00
2018-02-22T18:37:43.792Z,-1.00
2018-02-22T18:40:17.832Z,-0.80
2018-02-22T18:42:50.361Z,-0.90
2018-02-22T18:45:17.871Z,-0.80
2018-02-22T18:47:45.400Z,-0.90
2018-02-22T18:50:13.744Z,-1.00
2018-02-22T18:52:41.309Z,-1.10
2018-02-22T18:55:08.858Z,-1.00
2018-02-22T18:57:36.359Z,-1.10
2018-02-22T19:00:04.683Z,-1.00
2018-02-22T19:02:32.294Z,-1.10
2018-02-22T19:04:59.840Z,-1.00
2018-02-22T19:07:27.369Z,-1.00
2018-02-22T19:09:54.882Z,-1.00
2018-02-22T19:12:23.229Z,-1.10
2018-02-22T19:14:50.748Z,-1.20
2018-02-22T19:17:18.255Z,-1.10
2018-02-22T19:19:45.784Z,-1.10
2018-02-22T19:22:13.296Z,-1.00
2018-02-22T19:24:41.577Z,-1.00
2018-02-22T19:27:09.122Z,-1.00
2018-02-22T19:29:37.387Z,-1.10
2018-02-22T19:32:04.923Z,-1.20
2018-02-22T19:34:32.460Z,-1.20
2018-02-22T19:36:59.962Z,-1.20
2018-02-22T19:39:27.506Z,-1.20
2018-02-22T19:41:55.024Z,-1.20
2018-02-22T19:44:22.619Z,-1.30
2018-02-22T19:46:50.847Z,-1.20
2018-02-22T19:49:19.115Z,-1.20
2018-02-22T19:51:47.412Z,-1.20
2018-02-22T19:54:14.928Z,-1.30
2018-02-22T19:56:42.457Z,-1.20
2018-02-22T19:59:09.981Z,-1.20
2018-02-22T20:01:38.264Z,-1.20
2018-02-22T20:04:06.566Z,-1.30
2018-02-22T20:06:34.078Z,-1.40
2018-02-22T20:09:01.619Z,-1.30
2018-02-22T20:11:29.159Z,-1.30
2018-02-22T20:13:56.675Z,-1.40
2018-02-22T20:16:25.147Z,-1.40
2018-02-22T20:18:53.425Z,-1.40
2018-02-22T20:21:21.722Z,-1.40
2018-02-22T20:23:49.241Z,-1.50
2018-02-22T20:26:16.755Z,-1.50
2018-02-22T20:28:45.266Z,-1.30
2018-02-22T20:31:12.778Z,-1.40
2018-02-22T20:33:40.317Z,-1.40
2018-02-22T20:36:08.609Z,-1.40
2018-02-22T20:38:36.180Z,-1.50
2018-02-22T20:41:03.700Z,-1.40
2018-02-22T20:43:31.227Z,-1.30
2018-02-22T20:45:58.825Z,-1.30
2018-02-22T20:48:26.344Z,-1.40
2018-02-22T20:50:53.876Z,-1.40
2018-02-22T20:53:22.633Z,-1.50
2018-02-22T20:55:50.145Z,-1.50
2018-02-22T20:58:17.673Z,-1.40
2018-02-22T21:00:45.950Z,-1.40
2018-02-22T21:03:15.219Z,-1.50
2018-02-22T21:05:42.728Z,-1.60
2018-02-22T21:08:10.258Z,-1.50
2018-02-22T21:10:37.801Z,-1.50
2018-02-22T21:13:05.314Z,-1.50
2018-02-22T21:15:32.839Z,-1.60
2018-02-22T21:18:00.352Z,-1.50
2018-02-22T21:20:27.890Z,-1.40
2018-02-22T21:22:55.405Z,-1.50
2018-02-22T21:25:22.933Z,-1.50
2018-02-22T21:27:50.467Z,-1.50
2018-02-22T21:30:17.996Z,-1.50
2018-02-22T21:32:45.540Z,-1.50
2018-02-22T21:35:13.058Z,-1.50
2018-02-22T21:37:40.590Z,-1.60
2018-02-22T21:40:10.642Z,-1.60
2018-02-22T21:42:38.157Z,-1.70
2018-02-22T21:45:05.688Z,-1.70
2018-02-22T21:47:33.199Z,-1.70
2018-02-22T21:50:01.504Z,-1.60
2018-02-22T21:52:29.029Z,-1.70
2018-02-22T21:54:57.325Z,-1.60
2018-02-22T21:57:24.848Z,-1.70
2018-02-22T21:59:53.064Z,-1.60
2018-02-22T22:02:20.645Z,-1.70
2018-02-22T22:04:48.160Z,-1.70
2018-02-22T22:07:16.453Z,-1.70
2018-02-22T22:09:43.973Z,-1.80
2018-02-22T22:12:11.483Z,-1.60
2018-02-22T22:14:39.024Z,-1.70
2018-02-22T22:17:07.296Z,-1.70
2018-02-22T22:19:35.583Z,-1.70
2018-02-22T22:22:03.092Z,-1.80
2018-02-22T22:24:30.608Z,-1.70
2018-02-22T22:26:58.914Z,-1.40
2018-02-22T22:29:26.420Z,-1.50
2018-02-22T22:31:54.724Z,-1.70
2018-02-22T22:34:22.241Z,-1.80
2018-02-22T22:36:49.752Z,-1.70
2018-02-22T22:39:17.293Z,-1.60
2018-02-22T22:41:45.565Z,-1.50
2018-02-22T22:44:13.871Z,-1.60
2018-02-22T22:46:41.393Z,-1.70
2018-02-22T22:49:09.697Z,-1.70
2018-02-22T22:51:37.215Z,-1.80
2018-02-22T22:54:04.747Z,-1.80
2018-02-22T22:56:32.287Z,-1.80
2018-02-22T22:58:59.792Z,-1.70
2018-02-22T23:01:27.314Z,-1.60
2018-02-22T23:03:54.820Z,-1.70
2018-02-22T23:06:22.357Z,-1.80
2018-02-22T23:08:49.870Z,-1.80
2018-02-22T23:11:17.408Z,-1.80
2018-02-22T23:13:44.937Z,-1.80
2018-02-22T23:16:12.466Z,-1.70
2018-02-22T23:18:40.014Z,-1.80
2018-02-22T23:21:07.548Z,-1.70
2018-02-22T23:23:35.857Z,-1.90
2018-02-22T23:26:03.392Z,-2.00
2018-02-22T23:28:31.679Z,-1.90
2018-02-22T23:30:59.977Z,-1.90
2018-02-22T23:33:27.489Z,-1.90
2018-02-22T23:35:55.096Z,-1.90
2018-02-22T23:38:23.352Z,-2.00
2018-02-22T23:40:54.272Z,-2.00
2018-02-22T23:43:21.810Z,-2.10
2018-02-22T23:45:49.344Z,-2.00
2018-02-22T23:48:16.900Z,-1.90
2018-02-22T23:50:44.417Z,-2.00
2018-02-22T23:53:11.940Z,-2.00
2018-02-22T23:55:39.464Z,-1.90
2018-02-22T23:58:06.995Z,-1.90
